Vero Beach Municipal Airport
KVRB : now visible

Airfield :











YOU CAN JOIN US ON...

 
LOGIN :

Register | Disclaimer

   EN    FR    IT 

 









Legend :    VFR   Marginal VFR   IFR   Intensive IFR   Very Intensive IFR
Visi :
Ceiling :
>= 8 km
>= 3000ft
5 to 8 km
1000 to 3000 ft
1500m to 5 km
500 to 1000 ft
800 to 1500m
200 to 500 ft
< 800m
< 200 ft
Symbols :   Thunderstorms  Fog  Heavy snow  Heavy precipitations  Wind > 20 kt






- Airport Elevation : 24 ft
- IATA code : VRB


KVRB - Vero Beach Municipal

CURRENT METAR :
  • 270253Z AUTO 00000KT 10SM CLR 10/08 A3006 RMK AO2 SLP177 T01000078 50007

EXPIRED METARs :
  • 270153Z 00000KT 10SM CLR 11/08 A3006 RMK AO2 SLP178 T01060083
  • 270053Z 34004KT 10SM CLR 09/07 A3005 RMK AO2 SLP175 T00890067

TAF KVRB
Valid from the 27 at 00:00 until the 28 at 00:00 UTC


262350Z 2700/2724 00000KT P6SM BKN250
FM270600 VRB03KT P6SM OVC100
FM271600 26005KT P6SM BKN070 BKN250
FM272000 04007KT P6SM SCT050 BKN070 BKN250



MET'MAP, your aeronautical weather chart ! - Copyright ORBIFLY December 2007 - Disclaimer

ORBIFLY MET'MAP TEAM :

Programming & Development : Alexandra Zaïnal
Concept & original design : Baudouin d'Aumeries
Assistance for programming : Marc-Olivier Méhu
Technical & hardware support : Manuel Goepfert

Contact : metmap@orbifly.com




SOURCES & CREDITS :

   NOAA       Earth
Advisory